Time,TemperatureF,DewpointF,PressureIn,WindDirection,WindDirectionDegrees,WindSpeedMPH,WindSpeedGustMPH,Humidity,HourlyPrecipIn,Conditions,Clouds,dailyrainin,SoftwareType,DateUTC
2013-08-28 00:01:00,-999.0,-99.9,29.92,North,-999,-999.0,-999.0,-999,0.00,,,0.00,weatherlink.com 1.10,2013-08-28 04:01:00,
2013-08-28 00:16:00,-999.0,-99.9,29.92,North,-999,-999.0,-999.0,-999,0.00,,,0.00,weatherlink.com 1.10,2013-08-28 04:16:00,
2013-08-28 00:31:00,-999.0,-99.9,29.92,North,-999,-999.0,-999.0,-999,0.00,,,0.00,weatherlink.com 1.10,2013-08-28 04:31:00,
2013-08-28 00:46:00,-999.0,-99.9,29.92,North,-999,-999.0,-999.0,-999,0.00,,,0.00,weatherlink.com 1.10,2013-08-28 04:46:00,
2013-08-28 01:01:00,-999.0,-99.9,29.92,North,-999,-999.0,-999.0,-999,0.00,,,0.00,weatherlink.com 1.10,2013-08-28 05:01:00,
2013-08-28 01:16:00,-999.0,-99.9,29.91,North,-999,-999.0,-999.0,-999,0.00,,,0.00,weatherlink.com 1.10,2013-08-28 05:16:00,
2013-08-28 01:31:00,-999.0,-99.9,29.91,North,-999,-999.0,-999.0,-999,0.00,,,0.00,weatherlink.com 1.10,2013-08-28 05:31:00,
2013-08-28 01:46:00,-999.0,-99.9,29.91,North,-999,-999.0,-999.0,-999,0.00,,,0.00,weatherlink.com 1.10,2013-08-28 05:46:00,
2013-08-28 02:01:00,-999.0,-99.9,29.90,North,-999,-999.0,-999.0,-999,0.00,,,0.00,weatherlink.com 1.10,2013-08-28 06:01:00,
2013-08-28 02:17:00,-999.0,-99.9,29.90,North,-999,-999.0,-999.0,-999,0.00,,,0.00,weatherlink.com 1.10,2013-08-28 06:17:00,
2013-08-28 02:32:00,-999.0,-99.9,29.89,North,-999,-999.0,-999.0,-999,0.00,,,0.00,weatherlink.com 1.10,2013-08-28 06:32:00,
2013-08-28 02:47:00,-999.0,-99.9,29.89,North,-999,-999.0,-999.0,-999,0.00,,,0.00,weatherlink.com 1.10,2013-08-28 06:47:00,
2013-08-28 03:02:00,-999.0,-99.9,29.89,North,-999,-999.0,-999.0,-999,0.00,,,0.00,weatherlink.com 1.10,2013-08-28 07:02:00,
2013-08-28 03:17:00,-999.0,-99.9,29.88,North,-999,-999.0,-999.0,-999,0.00,,,0.00,weatherlink.com 1.10,2013-08-28 07:17:00,
2013-08-28 03:32:00,-999.0,-99.9,29.88,North,-999,-999.0,-999.0,-999,0.00,,,0.00,weatherlink.com 1.10,2013-08-28 07:32:00,
2013-08-28 03:47:00,-999.0,-99.9,29.88,North,-999,-999.0,-999.0,-999,0.00,,,0.00,weatherlink.com 1.10,2013-08-28 07:47:00,
2013-08-28 04:02:00,-999.0,-99.9,29.88,North,-999,-999.0,-999.0,-999,0.00,,,0.00,weatherlink.com 1.10,2013-08-28 08:02:00,
2013-08-28 04:17:00,-999.0,-99.9,29.88,North,-999,-999.0,-999.0,-999,0.00,,,0.00,weatherlink.com 1.10,2013-08-28 08:17:00,
2013-08-28 04:32:00,-999.0,-99.9,29.88,North,-999,-999.0,-999.0,-999,0.00,,,0.00,weatherlink.com 1.10,2013-08-28 08:32:00,
2013-08-28 04:47:00,-999.0,-99.9,29.87,North,-999,-999.0,-999.0,-999,0.00,,,0.00,weatherlink.com 1.10,2013-08-28 08:47:00,
2013-08-28 05:02:00,-999.0,-99.9,29.88,North,-999,-999.0,-999.0,-999,0.00,,,0.00,weatherlink.com 1.10,2013-08-28 09:02:00,
2013-08-28 05:17:00,-999.0,-99.9,29.87,North,-999,-999.0,-999.0,-999,0.00,,,0.00,weatherlink.com 1.10,2013-08-28 09:17:00,
2013-08-28 05:33:00,-999.0,-99.9,29.87,North,-999,-999.0,-999.0,-999,0.00,,,0.00,weatherlink.com 1.10,2013-08-28 09:33:00,
2013-08-28 05:48:00,-999.0,-99.9,29.87,North,-999,-999.0,-999.0,-999,0.00,,,0.00,weatherlink.com 1.10,2013-08-28 09:48:00,
2013-08-28 06:03:00,-999.0,-99.9,29.87,North,-999,-999.0,-999.0,-999,0.00,,,0.00,weatherlink.com 1.10,2013-08-28 10:03:00,
2013-08-28 06:18:00,-999.0,-99.9,29.87,North,-999,-999.0,-999.0,-999,0.00,,,0.00,weatherlink.com 1.10,2013-08-28 10:18:00,
2013-08-28 06:33:00,-999.0,-99.9,29.88,North,-999,-999.0,-999.0,-999,0.00,,,0.00,weatherlink.com 1.10,2013-08-28 10:33:00,
2013-08-28 06:48:00,-999.0,-99.9,29.88,North,-999,-999.0,-999.0,-999,0.00,,,0.00,weatherlink.com 1.10,2013-08-28 10:48:00,
2013-08-28 07:03:00,-999.0,-99.9,29.89,North,-999,-999.0,-999.0,-999,0.00,,,0.00,weatherlink.com 1.10,2013-08-28 11:03:00,
2013-08-28 07:18:00,-999.0,-99.9,29.89,North,-999,-999.0,-999.0,-999,0.00,,,0.00,weatherlink.com 1.10,2013-08-28 11:18:00,
2013-08-28 07:33:00,-999.0,-99.9,29.89,North,-999,-999.0,-999.0,-999,0.00,,,0.00,weatherlink.com 1.10,2013-08-28 11:33:00,
2013-08-28 07:48:00,-999.0,-99.9,29.89,North,-999,-999.0,-999.0,-999,0.00,,,0.00,weatherlink.com 1.10,2013-08-28 11:48:00,
2013-08-28 08:03:00,-999.0,-99.9,29.89,North,-999,-999.0,-999.0,-999,0.00,,,0.00,weatherlink.com 1.10,2013-08-28 12:03:00,
2013-08-28 08:18:00,-999.0,-99.9,29.89,North,-999,-999.0,-999.0,-999,0.00,,,0.00,weatherlink.com 1.10,2013-08-28 12:18:00,
2013-08-28 08:33:00,-999.0,-99.9,29.90,North,-999,-999.0,-999.0,-999,0.00,,,0.00,weatherlink.com 1.10,2013-08-28 12:33:00,
2013-08-28 08:48:00,-999.0,-99.9,29.90,North,-999,-999.0,-999.0,-999,0.00,,,0.00,weatherlink.com 1.10,2013-08-28 12:48:00,
2013-08-28 09:04:00,-999.0,-99.9,29.90,North,-999,-999.0,-999.0,-999,0.00,,,0.00,weatherlink.com 1.10,2013-08-28 13:04:00,
2013-08-28 09:19:00,-999.0,-99.9,29.91,North,-999,-999.0,-999.0,-999,0.00,,,0.00,weatherlink.com 1.10,2013-08-28 13:19:00,
2013-08-28 09:34:00,-999.0,-99.9,29.91,North,-999,-999.0,-999.0,-999,0.00,,,0.00,weatherlink.com 1.10,2013-08-28 13:34:00,
2013-08-28 09:49:00,-999.0,-99.9,29.91,North,-999,-999.0,-999.0,-999,0.00,,,0.00,weatherlink.com 1.10,2013-08-28 13:49:00,
2013-08-28 10:04:00,-999.0,-99.9,29.91,North,-999,-999.0,-999.0,-999,0.00,,,0.00,weatherlink.com 1.10,2013-08-28 14:04:00,
2013-08-28 10:19:00,72.5,71.0,29.91,WSW,257,0.0,0.0,96,0.00,,,0.00,weatherlink.com 1.10,2013-08-28 14:19:00,
2013-08-28 10:34:00,-999.0,-99.9,29.91,North,-999,-999.0,-999.0,-999,0.00,,,0.00,weatherlink.com 1.10,2013-08-28 14:34:00,
2013-08-28 10:49:00,72.3,71.0,29.91,WSW,257,0.0,0.0,96,0.00,,,0.00,weatherlink.com 1.10,2013-08-28 14:49:00,
2013-08-28 11:04:00,72.5,72.0,29.91,WSW,257,0.0,0.0,98,0.00,,,0.00,weatherlink.com 1.10,2013-08-28 15:04:00,
2013-08-28 11:19:00,73.0,72.0,29.90,WSW,257,0.0,0.0,98,0.00,,,0.00,weatherlink.com 1.10,2013-08-28 15:19:00,
2013-08-28 11:34:00,73.3,72.0,29.90,WSW,257,0.0,0.0,97,0.00,,,0.00,weatherlink.com 1.10,2013-08-28 15:34:00,
2013-08-28 11:49:00,-999.0,-99.9,29.90,North,-999,-999.0,-999.0,-999,0.00,,,0.00,weatherlink.com 1.10,2013-08-28 15:49:00,
2013-08-28 12:04:00,73.5,72.0,29.89,WSW,257,0.0,0.0,96,0.00,,,0.00,weatherlink.com 1.10,2013-08-28 16:04:00,
2013-08-28 12:19:00,-999.0,-99.9,29.89,North,-999,-999.0,-999.0,-999,0.00,,,0.00,weatherlink.com 1.10,2013-08-28 16:19:00,
2013-08-28 12:34:00,73.9,73.0,29.89,WSW,257,0.0,0.0,97,0.00,,,0.00,weatherlink.com 1.10,2013-08-28 16:34:00,
2013-08-28 12:49:00,74.2,74.0,29.88,WSW,257,0.0,0.0,98,0.00,,,0.00,weatherlink.com 1.10,2013-08-28 16:49:00,
2013-08-28 13:04:00,-999.0,-99.9,29.88,North,-999,-999.0,-999.0,-999,0.00,,,0.00,weatherlink.com 1.10,2013-08-28 17:04:00,
2013-08-28 13:19:00,74.9,74.0,29.88,WSW,257,0.0,0.0,96,0.00,,,0.00,weatherlink.com 1.10,2013-08-28 17:19:00,
2013-08-28 13:34:00,74.9,73.0,29.87,WSW,257,0.0,0.0,93,0.00,,,0.00,weatherlink.com 1.10,2013-08-28 17:34:00,
2013-08-28 14:20:00,75.6,73.0,29.86,WSW,257,0.0,0.0,92,0.00,,,0.00,weatherlink.com 1.10,2013-08-28 18:20:00,
2013-08-28 14:35:00,76.5,74.0,29.86,West,267,1.0,1.0,92,0.00,,,0.00,weatherlink.com 1.10,2013-08-28 18:35:00,
2013-08-28 14:50:00,77.6,72.0,29.85,NNW,346,0.0,1.0,82,0.00,,,0.00,weatherlink.com 1.10,2013-08-28 18:50:00,
2013-08-28 15:05:00,77.4,71.0,29.85,NNW,345,0.0,1.0,80,0.00,,,0.00,weatherlink.com 1.10,2013-08-28 19:05:00,
2013-08-28 15:20:00,77.6,71.0,29.84,North,11,0.0,2.0,79,0.00,,,0.00,weatherlink.com 1.10,2013-08-28 19:20:00,
2013-08-28 15:35:00,78.6,70.0,29.84,NNW,331,0.0,1.0,76,0.00,,,0.00,weatherlink.com 1.10,2013-08-28 19:35:00,
2013-08-28 15:50:00,79.8,71.0,29.82,NNW,331,0.0,1.0,75,0.00,,,0.00,weatherlink.com 1.10,2013-08-28 19:50:00,
2013-08-28 16:06:00,80.9,70.0,29.82,NE,40,0.0,3.0,69,0.00,,,0.00,weatherlink.com 1.10,2013-08-28 20:06:00,
2013-08-28 16:20:00,81.1,71.0,29.82,NW,307,0.0,3.0,72,0.00,,,0.00,weatherlink.com 1.10,2013-08-28 20:20:00,
2013-08-28 16:35:00,82.0,69.0,29.82,SW,235,1.0,8.0,64,0.00,,,0.00,weatherlink.com 1.10,2013-08-28 20:35:00,
2013-08-28 16:50:00,82.4,68.0,29.81,West,260,2.0,6.0,62,0.00,,,0.00,weatherlink.com 1.10,2013-08-28 20:50:00,
2013-08-28 17:05:00,82.2,68.0,29.81,West,271,0.0,4.0,63,0.00,,,0.00,weatherlink.com 1.10,2013-08-28 21:05:00,
2013-08-28 17:20:00,82.0,70.0,29.81,WNW,287,0.0,2.0,67,0.00,,,0.00,weatherlink.com 1.10,2013-08-28 21:20:00,
2013-08-28 17:35:00,81.6,70.0,29.80,NNE,23,0.0,1.0,68,0.00,,,0.00,weatherlink.com 1.10,2013-08-28 21:35:00,
2013-08-28 17:50:00,82.0,70.0,29.81,NNE,22,0.0,1.0,66,0.00,,,0.00,weatherlink.com 1.10,2013-08-28 21:50:00,
2013-08-28 18:05:00,82.6,69.0,29.81,West,265,0.0,3.0,63,0.00,,,0.00,weatherlink.com 1.10,2013-08-28 22:05:00,
2013-08-28 18:20:00,81.2,68.0,29.80,SW,220,0.0,2.0,65,0.00,,,0.00,weatherlink.com 1.10,2013-08-28 22:20:00,
2013-08-28 18:35:00,79.8,69.0,29.81,SW,220,0.0,0.0,69,0.00,,,0.00,weatherlink.com 1.10,2013-08-28 22:35:00,
2013-08-28 18:50:00,79.4,67.0,29.80,SW,221,0.0,1.0,67,0.00,,,0.00,weatherlink.com 1.10,2013-08-28 22:50:00,
2013-08-28 19:05:00,-999.0,-99.9,29.80,North,-999,-999.0,-999.0,-999,0.00,,,0.00,weatherlink.com 1.10,2013-08-28 23:05:00,
2013-08-28 19:20:00,-999.0,-99.9,29.78,North,-999,-999.0,-999.0,-999,0.00,,,0.00,weatherlink.com 1.10,2013-08-28 23:20:00,
2013-08-28 19:35:00,-999.0,-99.9,29.78,North,-999,-999.0,-999.0,-999,0.00,,,0.00,weatherlink.com 1.10,2013-08-28 23:35:00,
2013-08-28 19:50:00,-999.0,-99.9,29.77,North,-999,-999.0,-999.0,-999,0.00,,,0.00,weatherlink.com 1.10,2013-08-28 23:50:00,
2013-08-28 20:06:00,-999.0,-99.9,29.79,North,-999,-999.0,-999.0,-999,0.00,,,0.00,weatherlink.com 1.10,2013-08-29 00:06:00,
2013-08-28 20:21:00,-999.0,-99.9,29.80,North,-999,-999.0,-999.0,-999,0.00,,,0.00,weatherlink.com 1.10,2013-08-29 00:21:00,
2013-08-28 20:36:00,-999.0,-99.9,29.80,North,-999,-999.0,-999.0,-999,0.00,,,0.00,weatherlink.com 1.10,2013-08-29 00:36:00,
2013-08-28 20:51:00,-999.0,-99.9,29.80,North,-999,-999.0,-999.0,-999,0.00,,,0.00,weatherlink.com 1.10,2013-08-29 00:51:00,
2013-08-28 21:06:00,-999.0,-99.9,29.80,North,-999,-999.0,-999.0,-999,0.00,,,0.00,weatherlink.com 1.10,2013-08-29 01:06:00,
2013-08-28 21:21:00,-999.0,-99.9,29.80,North,-999,-999.0,-999.0,-999,0.00,,,0.00,weatherlink.com 1.10,2013-08-29 01:21:00,
2013-08-28 21:36:00,-999.0,-99.9,29.80,North,-999,-999.0,-999.0,-999,0.00,,,0.00,weatherlink.com 1.10,2013-08-29 01:36:00,
2013-08-28 21:51:00,-999.0,-99.9,29.80,North,-999,-999.0,-999.0,-999,0.00,,,0.00,weatherlink.com 1.10,2013-08-29 01:51:00,
2013-08-28 22:06:00,-999.0,-99.9,29.81,North,-999,-999.0,-999.0,-999,0.00,,,0.00,weatherlink.com 1.10,2013-08-29 02:06:00,
2013-08-28 22:21:00,-999.0,-99.9,29.82,North,-999,-999.0,-999.0,-999,0.00,,,0.00,weatherlink.com 1.10,2013-08-29 02:21:00,
2013-08-28 22:36:00,-999.0,-99.9,29.82,North,-999,-999.0,-999.0,-999,0.00,,,0.00,weatherlink.com 1.10,2013-08-29 02:36:00,
2013-08-28 22:51:00,-999.0,-99.9,29.81,North,-999,-999.0,-999.0,-999,0.00,,,0.00,weatherlink.com 1.10,2013-08-29 02:51:00,
2013-08-28 23:06:00,-999.0,-99.9,29.81,North,-999,-999.0,-999.0,-999,0.00,,,0.00,weatherlink.com 1.10,2013-08-29 03:06:00,
2013-08-28 23:22:00,-999.0,-99.9,29.80,North,-999,-999.0,-999.0,-999,0.00,,,0.00,weatherlink.com 1.10,2013-08-29 03:22:00,
2013-08-28 23:37:00,-999.0,-99.9,29.80,North,-999,-999.0,-999.0,-999,0.00,,,0.00,weatherlink.com 1.10,2013-08-29 03:37:00,
2013-08-28 23:52:00,-999.0,-99.9,29.80,North,-999,-999.0,-999.0,-999,0.00,,,0.00,weatherlink.com 1.10,2013-08-29 03:52:00,